Time;durP1;ratioP1;P1;durP2;ratioP2;P2;SDS_P1;SDS_P2;PMS_P1;PMS_P2;Temp;Humidity;BMP_temperature;BMP_pressure;BME280_temperature;BME280_humidity;BME280_pressure;Samples;Min_cycle;Max_cycle;Signal;HPM_P1;HPM_P2
2021/07/11 00:00:39;;;;;;;8.65;7.28;;;20.50;95.90;;;;;;4989515;28;20077;-33
2021/07/11 00:03:04;;;;;;;7.68;6.93;;;20.50;96.00;;;;;;4989441;28;20026;-33
2021/07/11 00:05:30;;;;;;;8.07;7.18;;;20.50;96.00;;;;;;4992092;28;20109;-33
2021/07/11 00:07:56;;;;;;;7.68;6.97;;;20.50;96.00;;;;;;4992892;28;20117;-33
2021/07/11 00:10:24;;;;;;;8.43;7.50;;;20.50;96.10;;;;;;4992907;28;20015;-33
2021/07/11 00:12:51;;;;;;;8.02;7.22;;;20.50;96.10;;;;;;4991132;28;20050;-33
2021/07/11 00:15:20;;;;;;;11.60;7.75;;;20.50;96.10;;;;;;4991308;28;20034;-33
2021/07/11 00:17:45;;;;;;;8.20;7.07;;;20.50;96.20;;;;;;4992528;28;20050;-33
2021/07/11 00:20:13;;;;;;;7.55;6.85;;;20.50;96.20;;;;;;4991951;28;20046;-33
2021/07/11 00:22:40;;;;;;;8.95;7.47;;;20.50;96.30;;;;;;4992492;28;20077;-33
2021/07/11 00:25:07;;;;;;;8.27;7.43;;;20.50;96.30;;;;;;4991963;28;20018;-33
2021/07/11 00:27:33;;;;;;;7.43;6.72;;;20.50;96.30;;;;;;4973728;28;20042;-33
2021/07/11 00:29:58;;;;;;;6.88;6.25;;;20.50;96.40;;;;;;4986045;28;20018;-33
2021/07/11 00:32:24;;;;;;;7.20;6.50;;;20.40;96.40;;;;;;4992312;28;20473;-33
2021/07/11 00:34:49;;;;;;;7.32;6.63;;;20.40;96.50;;;;;;4992697;28;20453;-33
2021/07/11 00:37:15;;;;;;;8.13;7.22;;;20.40;96.60;;;;;;4991460;28;20041;-33
2021/07/11 00:39:41;;;;;;;8.35;7.47;;;20.40;96.70;;;;;;4991805;28;20097;-33
2021/07/11 00:42:11;;;;;;;8.38;7.57;;;20.40;96.80;;;;;;4991949;28;20117;-33
2021/07/11 00:44:36;;;;;;;8.73;7.82;;;20.30;96.80;;;;;;4992678;28;20088;-33
2021/07/11 00:47:02;;;;;;;8.45;7.25;;;20.30;96.90;;;;;;4991682;28;20023;-33
2021/07/11 00:49:27;;;;;;;8.05;7.25;;;20.20;97.00;;;;;;4992247;28;20085;-32
2021/07/11 00:51:53;;;;;;;8.95;7.97;;;20.20;97.10;;;;;;4993123;28;20109;-32
2021/07/11 00:54:21;;;;;;;7.68;6.88;;;20.10;97.20;;;;;;4991260;28;20085;-32
2021/07/11 00:56:47;;;;;;;9.95;7.38;;;20.10;97.30;;;;;;4988814;28;20018;-32
2021/07/11 00:59:12;;;;;;;9.38;7.60;;;20.00;97.60;;;;;;4992332;28;20085;-32
2021/07/11 01:01:44;;;;;;;8.63;7.72;;;20.00;97.40;;;;;;4991714;28;20026;-32
2021/07/11 01:04:36;;;;;;;8.85;7.95;;;20.00;97.50;;;;;;4992296;28;20081;-32
2021/07/11 01:07:06;;;;;;;9.18;7.60;;;20.00;97.60;;;;;;4991279;28;20056;-32
2021/07/11 01:09:36;;;;;;;8.18;7.35;;;20.00;97.50;;;;;;4992150;28;20022;-32
2021/07/11 01:12:10;;;;;;;7.93;7.13;;;20.10;97.60;;;;;;4990841;28;20494;-32
2021/07/11 01:14:37;;;;;;;8.55;7.63;;;20.10;97.60;;;;;;4991553;28;20470;-32
2021/07/11 01:17:05;;;;;;;8.40;7.60;;;20.10;97.70;;;;;;4990308;28;20069;-32
2021/07/11 01:19:39;;;;;;;7.85;7.05;;;20.10;98.10;;;;;;4991944;28;20033;-32
2021/07/11 01:22:10;;;;;;;7.97;7.20;;;20.10;97.90;;;;;;4991259;28;20049;-32
2021/07/11 01:24:40;;;;;;;9.82;8.13;;;20.00;98.00;;;;;;4991630;28;20113;-32
2021/07/11 01:27:07;;;;;;;8.68;7.45;;;20.00;98.10;;;;;;4990992;28;20077;-33
2021/07/11 01:29:33;;;;;;;8.95;8.05;;;20.00;98.20;;;;;;4990699;28;20426;-32
2021/07/11 01:31:59;;;;;;;7.85;7.03;;;19.90;98.30;;;;;;4991388;28;20092;-32
2021/07/11 01:34:25;;;;;;;8.30;7.50;;;19.90;98.40;;;;;;4991355;28;20030;-32
2021/07/11 01:36:52;;;;;;;9.18;8.27;;;19.90;98.40;;;;;;4990640;28;20034;-32
2021/07/11 01:39:18;;;;;;;8.38;7.55;;;19.90;98.50;;;;;;4991070;28;20026;-32
2021/07/11 01:41:45;;;;;;;8.82;7.35;;;19.80;98.50;;;;;;4990756;28;20030;-32
2021/07/11 01:44:12;;;;;;;8.95;8.05;;;19.80;98.50;;;;;;4990450;28;20505;-33
2021/07/11 01:46:41;;;;;;;9.88;8.88;;;19.60;98.60;;;;;;4991257;28;20018;-32
2021/07/11 01:49:08;;;;;;;7.57;6.85;;;19.50;98.80;;;;;;4991164;28;20228;-32
2021/07/11 01:51:34;;;;;;;8.55;7.75;;;19.40;98.90;;;;;;4991005;28;20015;-32
2021/07/11 01:54:00;;;;;;;9.93;8.93;;;19.30;98.90;;;;;;4990385;28;20390;-32
2021/07/11 01:56:27;;;;;;;9.20;8.30;;;19.20;99.00;;;;;;4991183;28;20465;-32
2021/07/11 01:58:52;;;;;;;10.05;8.93;;;19.20;99.10;;;;;;4987225;28;20037;-32
2021/07/11 02:01:18;;;;;;;9.98;8.77;;;19.20;99.10;;;;;;4991340;28;20019;-32
2021/07/11 02:03:44;;;;;;;11.10;9.68;;;19.20;99.20;;;;;;4990270;28;20065;-32
2021/07/11 02:06:11;;;;;;;10.20;8.90;;;19.20;99.10;;;;;;4991172;28;20501;-32
2021/07/11 02:08:38;;;;;;;11.88;9.68;;;19.30;99.20;;;;;;4991208;28;20026;-32
2021/07/11 02:11:07;;;;;;;8.90;8.00;;;19.30;99.10;;;;;;4989683;28;20061;-32
2021/07/11 02:13:47;;;;;;;10.85;8.98;;;19.40;99.10;;;;;;4990932;28;20360;-32
2021/07/11 02:16:29;;;;;;;9.75;8.57;;;19.40;99.00;;;;;;4971137;28;20529;-32
2021/07/11 02:18:58;;;;;;;8.70;7.80;;;19.40;99.00;;;;;;4986015;28;20037;-32
2021/07/11 02:21:26;;;;;;;10.55;8.52;;;19.50;99.00;;;;;;4971720;28;20042;-32
2021/07/11 02:23:52;;;;;;;10.43;9.38;;;19.50;99.00;;;;;;4984852;28;20039;-32
2021/07/11 02:26:23;;;;;;;9.82;8.70;;;19.50;99.10;;;;;;4990150;28;20037;-32
2021/07/11 02:28:50;;;;;;;9.38;8.45;;;19.50;99.10;;;;;;4989673;28;20034;-32
2021/07/11 02:31:16;;;;;;;9.65;8.65;;;19.60;99.10;;;;;;4989988;28;20318;-32
2021/07/11 02:33:43;;;;;;;9.30;8.40;;;19.60;99.10;;;;;;4989726;28;20105;-32
2021/07/11 02:36:22;;;;;;;10.00;8.40;;;19.60;99.10;;;;;;4990146;28;20019;-32
2021/07/11 02:39:07;;;;;;;9.82;8.82;;;19.60;99.10;;;;;;4989431;28;20125;-32
2021/07/11 02:41:35;;;;;;;9.10;8.20;;;19.60;99.20;;;;;;4990828;28;20030;-32
2021/07/11 02:44:04;;;;;;;9.98;8.75;;;19.50;99.20;;;;;;4989182;28;20092;-32
2021/07/11 02:46:40;;;;;;;9.20;8.30;;;19.50;99.30;;;;;;4989536;28;20026;-32
2021/07/11 02:49:09;;;;;;;9.60;8.60;;;19.60;99.30;;;;;;4990534;28;20054;-32
2021/07/11 02:51:41;;;;;;;10.13;9.02;;;19.60;99.30;;;;;;4989661;28;20184;-33
2021/07/11 02:54:09;;;;;;;9.50;8.60;;;19.60;99.30;;;;;;4989578;28;20065;-33
2021/07/11 02:56:38;;;;;;;11.00;9.25;;;19.60;99.30;;;;;;4989293;28;20034;-32
2021/07/11 02:59:06;;;;;;;10.13;9.13;;;19.60;99.30;;;;;;4988968;28;20022;-33
2021/07/11 03:01:33;;;;;;;12.50;10.30;;;19.60;99.30;;;;;;4989769;28;20030;-32
2021/07/11 03:04:00;;;;;;;11.63;10.50;;;19.70;99.40;;;;;;4989187;28;20027;-32
2021/07/11 03:06:26;;;;;;;12.07;10.50;;;19.70;99.40;;;;;;4990042;28;20031;-32
2021/07/11 03:08:52;;;;;;;12.38;9.90;;;19.70;99.40;;;;;;4988835;28;20030;-32
2021/07/11 03:11:18;;;;;;;11.30;8.95;;;19.70;99.40;;;;;;4989602;28;20426;-32
2021/07/11 03:13:46;;;;;;;10.70;9.60;;;19.70;99.50;;;;;;4990179;28;20042;-32
2021/07/11 03:16:12;;;;;;;10.88;9.77;;;19.70;99.50;;;;;;4988632;28;20030;-32
2021/07/11 03:18:38;;;;;;;11.13;10.02;;;19.70;99.50;;;;;;4990276;28;20029;-32
2021/07/11 03:21:07;;;;;;;10.73;9.63;;;19.70;99.50;;;;;;4988369;28;20113;-32
2021/07/11 03:23:35;;;;;;;10.45;9.48;;;19.60;99.60;;;;;;4990307;28;20030;-33
2021/07/11 03:26:01;;;;;;;11.80;10.45;;;19.60;99.70;;;;;;4989306;28;20117;-32
2021/07/11 03:28:30;;;;;;;11.18;10.07;;;19.70;99.80;;;;;;4989502;28;20041;-32
2021/07/11 03:30:56;;;;;;;11.85;10.65;;;19.70;99.90;;;;;;4989466;28;20027;-32
2021/07/11 03:33:24;;;;;;;11.20;9.85;;;19.70;99.90;;;;;;4989601;28;20085;-32
2021/07/11 03:35:57;;;;;;;11.63;10.40;;;19.70;99.90;;;;;;4988166;28;20049;-32
2021/07/11 03:38:26;;;;;;;12.50;11.23;;;19.60;99.90;;;;;;4989584;28;20069;-32
2021/07/11 03:40:54;;;;;;;12.80;10.93;;;19.70;99.90;;;;;;4993195;28;20025;-33
2021/07/11 03:43:23;;;;;;;12.32;11.00;;;19.60;99.90;;;;;;4992163;28;20605;-32
2021/07/11 03:45:53;;;;;;;12.10;10.77;;;19.50;99.90;;;;;;4992885;28;20389;-32
2021/07/11 03:48:25;;;;;;;11.38;10.27;;;19.50;99.90;;;;;;4993722;28;20089;-32
2021/07/11 03:50:55;;;;;;;11.82;10.50;;;19.50;99.90;;;;;;4992681;28;20034;-32
2021/07/11 03:53:24;;;;;;;11.75;10.50;;;19.40;99.90;;;;;;4993975;28;20022;-33
2021/07/11 03:55:51;;;;;;;12.40;11.10;;;19.30;99.90;;;;;;4992280;28;20417;-32
2021/07/11 03:58:20;;;;;;;13.88;12.32;;;19.30;99.90;;;;;;4992460;28;20025;-32
2021/07/11 04:00:48;;;;;;;12.52;11.23;;;19.30;99.90;;;;;;4993171;28;20542;-32
2021/07/11 04:03:14;;;;;;;12.55;11.25;;;19.20;99.90;;;;;;4992504;28;20539;-32
2021/07/11 04:05:40;;;;;;;13.15;11.85;;;19.20;99.90;;;;;;4993182;28;20033;-32
2021/07/11 04:08:12;;;;;;;14.15;12.57;;;19.20;99.90;;;;;;4992697;28;20400;-32
2021/07/11 04:10:41;;;;;;;13.38;11.63;;;19.10;99.90;;;;;;4992980;28;20019;-32
2021/07/11 04:13:07;;;;;;;14.30;12.80;;;19.10;99.90;;;;;;4992363;28;20046;-32
2021/07/11 04:15:34;;;;;;;14.57;12.80;;;19.10;99.90;;;;;;4993670;28;20225;-32
2021/07/11 04:18:11;;;;;;;14.25;12.75;;;19.10;99.90;;;;;;4991843;28;20508;-33
2021/07/11 04:20:38;;;;;;;14.32;12.35;;;19.10;99.90;;;;;;4992774;28;20477;-32
2021/07/11 04:23:05;;;;;;;16.48;13.43;;;19.10;99.90;;;;;;4992407;28;20049;-33
2021/07/11 04:25:32;;;;;;;13.65;12.18;;;19.10;99.90;;;;;;4973456;28;20166;-32
2021/07/11 04:27:59;;;;;;;13.98;12.52;;;19.10;99.90;;;;;;4986811;28;20072;-32
2021/07/11 04:30:25;;;;;;;14.18;12.68;;;19.10;99.90;;;;;;4992913;28;20033;-33
2021/07/11 04:32:51;;;;;;;15.27;13.20;;;19.10;99.90;;;;;;4992083;28;20022;-32
2021/07/11 04:35:16;;;;;;;15.90;13.43;;;19.10;99.90;;;;;;4992794;28;20027;-32
2021/07/11 04:37:42;;;;;;;14.40;12.90;;;19.10;99.90;;;;;;4992418;28;20069;-33
2021/07/11 04:40:08;;;;;;;15.52;12.77;;;19.10;99.90;;;;;;4992153;28;20101;-33
2021/07/11 04:42:34;;;;;;;16.45;14.23;;;19.20;99.90;;;;;;4992179;28;20030;-32
2021/07/11 04:45:02;;;;;;;14.38;12.95;;;19.20;99.90;;;;;;4991916;28;20049;-32
2021/07/11 04:47:28;;;;;;;15.35;13.00;;;19.20;99.90;;;;;;4991626;28;20031;-32
2021/07/11 04:49:54;;;;;;;14.27;12.82;;;19.20;99.90;;;;;;4991087;28;20019;-32
2021/07/11 04:52:19;;;;;;;15.73;14.13;;;19.20;99.90;;;;;;4991989;28;20015;-32
2021/07/11 04:54:45;;;;;;;15.50;13.25;;;19.20;99.90;;;;;;4991941;28;20066;-32
2021/07/11 04:57:11;;;;;;;15.10;13.50;;;19.20;99.90;;;;;;4991926;28;20110;-32
2021/07/11 04:59:36;;;;;;;15.23;13.30;;;19.20;99.90;;;;;;4991677;28;20038;-32
2021/07/11 05:02:02;;;;;;;15.90;12.95;;;19.20;99.90;;;;;;4991282;28;20077;-33
2021/07/11 05:04:29;;;;;;;15.77;13.75;;;19.20;99.90;;;;;;4991855;28;20093;-32
2021/07/11 05:06:54;;;;;;;15.48;13.70;;;19.20;99.90;;;;;;4991159;28;20033;-32
2021/07/11 05:09:20;;;;;;;14.60;13.00;;;19.20;99.90;;;;;;4991991;28;20026;-33
2021/07/11 05:11:46;;;;;;;14.45;12.68;;;19.20;99.90;;;;;;4991526;28;20081;-33
2021/07/11 05:14:11;;;;;;;15.10;13.50;;;19.20;99.90;;;;;;4990939;28;20038;-33
2021/07/11 05:16:37;;;;;;;13.68;12.27;;;19.20;99.90;;;;;;4992024;28;20397;-32
2021/07/11 05:19:03;;;;;;;15.27;13.68;;;19.30;99.90;;;;;;4990985;28;20018;-33
2021/07/11 05:21:29;;;;;;;16.30;14.60;;;19.30;99.90;;;;;;4991299;28;20027;-33
2021/07/11 05:23:56;;;;;;;15.68;14.00;;;19.30;99.90;;;;;;4991487;28;20062;-32
2021/07/11 05:26:22;;;;;;;17.05;14.27;;;19.30;99.90;;;;;;4991766;28;20474;-32
2021/07/11 05:28:47;;;;;;;15.05;13.55;;;19.40;99.90;;;;;;4990789;28;20073;-32
2021/07/11 05:31:13;;;;;;;15.52;13.85;;;19.40;99.90;;;;;;4991564;28;20137;-32
2021/07/11 05:33:39;;;;;;;15.10;13.52;;;19.50;99.90;;;;;;4991384;28;20034;-33
2021/07/11 05:36:07;;;;;;;16.48;14.27;;;19.50;99.90;;;;;;4990946;28;20097;-32
2021/07/11 05:38:33;;;;;;;15.35;13.40;;;19.50;99.90;;;;;;4991961;28;20046;-32
2021/07/11 05:40:58;;;;;;;17.38;14.43;;;19.50;99.90;;;;;;4990900;28;20062;-32
2021/07/11 05:43:24;;;;;;;15.75;14.00;;;19.50;99.90;;;;;;4991520;28;20436;-32
2021/07/11 05:45:50;;;;;;;16.00;14.20;;;19.60;99.90;;;;;;4990843;28;20025;-33
2021/07/11 05:48:15;;;;;;;15.52;13.93;;;19.60;99.90;;;;;;4972028;28;20150;-32
2021/07/11 05:50:41;;;;;;;17.13;15.05;;;19.70;99.90;;;;;;4984911;28;20014;-32
2021/07/11 05:53:10;;;;;;;19.00;15.88;;;19.70;99.90;;;;;;4991146;28;20023;-32
2021/07/11 05:55:44;;;;;;;16.90;15.10;;;19.70;99.90;;;;;;4991406;28;20077;-33
2021/07/11 05:58:10;;;;;;;16.83;15.10;;;19.70;99.90;;;;;;4990843;28;20482;-33
2021/07/11 06:00:36;;;;;;;17.88;15.95;;;19.80;99.90;;;;;;4991316;28;20021;-32
2021/07/11 06:03:02;;;;;;;17.92;15.50;;;19.80;99.90;;;;;;4990013;28;20384;-32
2021/07/11 06:05:27;;;;;;;16.63;14.88;;;19.80;99.90;;;;;;4990524;28;20014;-32
2021/07/11 06:07:53;;;;;;;15.77;14.15;;;19.70;99.90;;;;;;4988960;28;20022;-33
2021/07/11 06:10:19;;;;;;;15.55;13.95;;;19.80;99.90;;;;;;4990919;28;20026;-33
2021/07/11 06:12:45;;;;;;;15.75;14.15;;;19.70;99.90;;;;;;4990664;28;20393;-32
2021/07/11 06:15:11;;;;;;;15.45;13.77;;;19.80;99.90;;;;;;4991028;28;20022;-32
2021/07/11 06:17:37;;;;;;;16.40;14.68;;;19.80;99.90;;;;;;4990679;28;20026;-32
2021/07/11 06:20:06;;;;;;;15.80;14.10;;;19.90;99.90;;;;;;4990621;28;20023;-32
2021/07/11 06:22:35;;;;;;;18.20;16.35;;;19.80;99.90;;;;;;4989495;28;20027;-32
2021/07/11 06:25:06;;;;;;;18.40;16.48;;;19.90;99.90;;;;;;4990334;28;20378;-32
2021/07/11 06:27:33;;;;;;;19.10;15.15;;;19.90;99.90;;;;;;4990484;28;20015;-32
2021/07/11 06:29:59;;;;;;;17.77;14.27;;;19.80;99.90;;;;;;4990472;28;20036;-33
2021/07/11 06:32:24;;;;;;;16.58;14.75;;;19.80;99.90;;;;;;4989591;28;20022;-34
2021/07/11 06:34:50;;;;;;;17.90;16.05;;;19.80;99.90;;;;;;4990140;28;20050;-33
2021/07/11 06:37:15;;;;;;;19.52;16.13;;;19.80;99.90;;;;;;4989922;28;20050;-33
2021/07/11 06:39:41;;;;;;;16.65;14.95;;;19.80;99.90;;;;;;4989787;28;20026;-32
2021/07/11 06:42:07;;;;;;;18.30;16.08;;;19.80;99.90;;;;;;4989719;28;20033;-32
2021/07/11 06:44:32;;;;;;;15.82;14.18;;;19.80;99.90;;;;;;4990314;28;20080;-33
2021/07/11 06:46:58;;;;;;;18.50;15.63;;;19.80;99.90;;;;;;4988626;28;20025;-32
2021/07/11 06:49:24;;;;;;;17.00;14.40;;;19.80;99.90;;;;;;4991097;28;20019;-33
2021/07/11 06:51:49;;;;;;;16.52;14.82;;;19.80;99.90;;;;;;4989600;28;20030;-32
2021/07/11 06:54:15;;;;;;;17.05;15.20;;;19.90;99.90;;;;;;4989409;28;20038;-32
2021/07/11 06:56:40;;;;;;;18.58;16.33;;;19.90;99.90;;;;;;4989912;28;20073;-32
2021/07/11 06:59:06;;;;;;;17.70;14.82;;;19.90;99.90;;;;;;4988819;28;20030;-32
2021/07/11 07:01:32;;;;;;;18.90;16.15;;;20.00;99.90;;;;;;4989891;28;20031;-32
2021/07/11 07:03:57;;;;;;;18.25;15.45;;;20.10;99.90;;;;;;4989309;28;20049;-32
2021/07/11 07:06:23;;;;;;;21.90;18.02;;;20.20;99.90;;;;;;4989987;28;20497;-32
2021/07/11 07:08:48;;;;;;;22.00;17.02;;;20.20;99.90;;;;;;4988589;28;20018;-33
2021/07/11 07:11:14;;;;;;;17.77;15.48;;;20.40;99.90;;;;;;4989634;28;20378;-32
2021/07/11 07:13:39;;;;;;;18.52;15.90;;;20.40;99.90;;;;;;4988240;28;20386;-32
2021/07/11 07:16:05;;;;;;;17.30;15.55;;;20.50;99.90;;;;;;4990074;28;20026;-31
2021/07/11 07:18:30;;;;;;;17.50;15.65;;;20.50;99.90;;;;;;4989819;28;20037;-31
2021/07/11 07:20:56;;;;;;;19.42;17.33;;;20.50;99.90;;;;;;4988706;28;20026;-31
2021/07/11 07:23:21;;;;;;;17.75;15.85;;;20.50;99.90;;;;;;4989747;28;20046;-31
2021/07/11 07:25:47;;;;;;;18.10;16.20;;;20.50;99.90;;;;;;4989897;28;20031;-32
2021/07/11 07:28:13;;;;;;;16.80;15.05;;;20.60;99.90;;;;;;4988695;28;20513;-32
2021/07/11 07:30:38;;;;;;;18.23;15.93;;;20.70;99.90;;;;;;4989829;28;20022;-31
2021/07/11 07:33:04;;;;;;;17.60;15.75;;;21.00;99.90;;;;;;4989651;28;20088;-32
2021/07/11 07:35:29;;;;;;;16.88;14.95;;;21.20;99.90;;;;;;4988764;28;20014;-31
2021/07/11 07:37:55;;;;;;;18.17;16.13;;;21.40;99.90;;;;;;4988836;28;20489;-32
2021/07/11 07:40:21;;;;;;;15.88;14.20;;;21.50;99.90;;;;;;4990197;28;20354;-33
2021/07/11 07:42:48;;;;;;;15.10;13.50;;;21.60;99.90;;;;;;4989214;28;20038;-33
2021/07/11 07:45:14;;;;;;;15.85;13.90;;;21.60;99.90;;;;;;4989258;28;20022;-33
2021/07/11 07:47:41;;;;;;;16.40;14.60;;;21.70;99.90;;;;;;4989917;28;20026;-33
2021/07/11 07:50:09;;;;;;;19.98;15.57;;;21.70;99.90;;;;;;4988811;28;20026;-32
2021/07/11 07:52:38;;;;;;;14.40;12.95;;;21.80;99.90;;;;;;4989868;28;20176;-32
2021/07/11 07:55:05;;;;;;;16.65;14.90;;;21.90;99.90;;;;;;4989532;28;20022;-32
2021/07/11 07:57:31;;;;;;;17.75;15.90;;;21.90;99.90;;;;;;4989333;28;20123;-32
2021/07/11 07:59:56;;;;;;;16.77;15.07;;;21.90;99.90;;;;;;4988742;28;20078;-33
2021/07/11 08:02:25;;;;;;;17.25;14.95;;;22.00;99.90;;;;;;4989694;28;20525;-31
2021/07/11 08:04:50;;;;;;;17.80;15.40;;;22.10;99.90;;;;;;4989307;28;20053;-32
2021/07/11 08:07:16;;;;;;;18.35;16.35;;;22.10;99.80;;;;;;4989642;28;20038;-31
2021/07/11 08:09:42;;;;;;;17.80;14.85;;;22.10;99.60;;;;;;4988327;28;20101;-32
2021/07/11 08:12:08;;;;;;;17.45;15.70;;;22.20;99.50;;;;;;4988536;28;20185;-32
2021/07/11 08:14:34;;;;;;;19.88;16.00;;;22.20;99.50;;;;;;4989342;28;20462;-32
2021/07/11 08:16:59;;;;;;;20.35;17.10;;;22.10;99.50;;;;;;4988351;28;20040;-32
2021/07/11 08:19:25;;;;;;;17.65;15.70;;;22.00;99.60;;;;;;4989322;28;20029;-32
2021/07/11 08:21:53;;;;;;;17.88;15.93;;;21.80;99.60;;;;;;4989858;28;20124;-32
2021/07/11 08:24:22;;;;;;;20.02;15.60;;;21.70;99.80;;;;;;4988526;28;20490;-34
2021/07/11 08:26:48;;;;;;;16.23;14.48;;;21.60;99.80;;;;;;4987413;28;20362;-34
2021/07/11 08:29:14;;;;;;;16.50;14.80;;;21.70;99.80;;;;;;4992891;28;20161;-34
2021/07/11 08:31:46;;;;;;;17.77;15.93;;;21.60;99.70;;;;;;4991657;28;20464;-34
2021/07/11 08:34:12;;;;;;;16.05;14.45;;;21.60;99.70;;;;;;4992329;28;20022;-34
2021/07/11 08:36:38;;;;;;;17.75;15.15;;;21.60;99.70;;;;;;4992285;28;20386;-34
2021/07/11 08:39:05;;;;;;;18.00;15.68;;;21.50;99.80;;;;;;4991627;28;20057;-34
2021/07/11 08:41:31;;;;;;;18.10;15.18;;;21.50;99.90;;;;;;4992504;28;20022;-34
2021/07/11 08:43:56;;;;;;;21.50;18.38;;;21.40;99.90;;;;;;4991784;28;20641;-32
2021/07/11 08:46:22;;;;;;;19.02;16.95;;;21.40;99.90;;;;;;4992033;28;20019;-34
2021/07/11 08:48:49;;;;;;;20.83;17.30;;;21.30;99.90;;;;;;4992112;28;20034;-32
2021/07/11 08:51:16;;;;;;;21.55;18.17;;;21.30;99.90;;;;;;4992080;28;20014;-32
2021/07/11 08:53:47;;;;;;;19.67;17.60;;;21.30;99.90;;;;;;4991970;28;20049;-32
2021/07/11 08:56:25;;;;;;;18.52;16.08;;;21.20;99.90;;;;;;4991759;28;20648;-33
2021/07/11 08:58:53;;;;;;;18.38;15.68;;;21.20;99.90;;;;;;4991578;28;20022;-33
2021/07/11 09:01:20;;;;;;;16.95;15.15;;;21.20;99.90;;;;;;4991759;28;20057;-32
2021/07/11 09:04:08;;;;;;;18.02;15.48;;;21.20;99.90;;;;;;4991964;28;20053;-33
2021/07/11 09:06:40;;;;;;;18.92;15.60;;;21.30;99.90;;;;;;4990182;28;20307;-32
2021/07/11 09:09:06;;;;;;;19.33;16.83;;;21.30;99.90;;;;;;4991740;28;20441;-32
2021/07/11 09:11:32;;;;;;;17.83;15.57;;;21.30;99.80;;;;;;4992113;28;20126;-32
2021/07/11 09:13:57;;;;;;;24.05;19.95;;;21.40;99.80;;;;;;4990483;28;20022;-33
2021/07/11 09:16:23;;;;;;;24.40;19.33;;;21.50;99.90;;;;;;4991594;28;20109;-32
2021/07/11 09:18:51;;;;;;;18.65;16.17;;;21.50;99.50;;;;;;4991974;28;20160;-33
2021/07/11 09:21:17;;;;;;;17.48;15.15;;;21.60;99.40;;;;;;4991120;28;20026;-33
2021/07/11 09:23:43;;;;;;;17.50;15.65;;;21.70;99.40;;;;;;4987559;28;20386;-32
2021/07/11 09:26:11;;;;;;;18.50;16.15;;;21.90;99.20;;;;;;4991430;28;20022;-32
2021/07/11 09:28:43;;;;;;;23.15;19.10;;;22.00;99.10;;;;;;4990811;28;20026;-33
2021/07/11 09:31:17;;;;;;;21.38;18.63;;;22.20;98.70;;;;;;4991872;28;20363;-32
2021/07/11 09:33:45;;;;;;;17.65;15.73;;;22.30;98.40;;;;;;4990782;28;20030;-32
2021/07/11 09:36:20;;;;;;;17.15;15.02;;;22.40;98.30;;;;;;4990806;28;20026;-32
2021/07/11 09:38:49;;;;;;;15.85;14.25;;;22.50;98.30;;;;;;4990781;28;20018;-32
2021/07/11 09:41:29;;;;;;;18.10;15.65;;;22.50;98.30;;;;;;4990632;28;20157;-32
2021/07/11 09:43:59;;;;;;;19.20;16.63;;;22.50;98.40;;;;;;4990660;28;20189;-32
2021/07/11 09:46:28;;;;;;;19.48;17.05;;;22.40;98.50;;;;;;4991694;28;20477;-32
2021/07/11 09:48:54;;;;;;;21.67;17.83;;;22.40;98.50;;;;;;4989975;28;20069;-32
2021/07/11 09:51:28;;;;;;;23.05;19.40;;;22.20;98.30;;;;;;4990920;28;20018;-33
2021/07/11 09:53:55;;;;;;;18.10;16.13;;;22.10;98.40;;;;;;4990422;28;20116;-33
2021/07/11 09:56:54;;;;;;;;;;;;;;;;;;;;;
2021/07/11 09:59:30;;;;;;;22.52;19.70;;;22.10;98.70;;;;;;4986265;28;20031;-32
2021/07/11 10:01:55;;;;;;;21.15;18.75;;;22.10;98.50;;;;;;4989056;28;20034;-32
2021/07/11 10:04:22;;;;;;;19.05;17.02;;;22.10;98.30;;;;;;4990521;28;20034;-32
2021/07/11 10:06:48;;;;;;;17.65;15.05;;;22.20;98.30;;;;;;4990979;28;20102;-32
2021/07/11 10:09:23;;;;;;;15.70;13.80;;;22.40;98.30;;;;;;4990627;28;20141;-32
2021/07/11 10:11:52;;;;;;;15.82;13.40;;;22.60;98.10;;;;;;4991151;28;20045;-33
2021/07/11 10:14:17;;;;;;;17.75;15.80;;;22.80;97.80;;;;;;4989970;28;20650;-33
2021/07/11 10:16:44;;;;;;;18.25;15.45;;;23.00;97.30;;;;;;4990337;28;20022;-32
2021/07/11 10:19:12;;;;;;;16.50;14.35;;;23.20;97.20;;;;;;4990396;28;20056;-33
2021/07/11 10:21:39;;;;;;;16.58;14.77;;;23.30;97.10;;;;;;4990702;28;20041;-33
2021/07/11 10:24:15;;;;;;;13.63;12.23;;;23.30;97.00;;;;;;4989728;28;20395;-33
2021/07/11 10:26:41;;;;;;;13.45;12.05;;;23.40;97.00;;;;;;4989149;28;20362;-32
2021/07/11 10:29:12;;;;;;;12.73;10.63;;;23.50;97.00;;;;;;4989526;28;20028;-32
2021/07/11 10:32:04;;;;;;;13.90;11.50;;;23.60;96.90;;;;;;4990605;28;20429;-33
2021/07/11 10:34:33;;;;;;;13.23;11.77;;;23.70;96.90;;;;;;4986938;28;20109;-31
2021/07/11 10:37:14;;;;;;;21.75;19.17;;;23.60;96.90;;;;;;4989633;28;20129;-32
2021/07/11 10:39:39;;;;;;;24.75;19.90;;;23.50;96.70;;;;;;4989506;28;20026;-34
2021/07/11 10:42:08;;;;;;;22.15;19.33;;;23.20;96.70;;;;;;4990585;28;20030;-34
2021/07/11 10:44:34;;;;;;;19.48;17.38;;;23.00;96.70;;;;;;4990176;28;20023;-34
2021/07/11 10:47:02;;;;;;;17.50;15.43;;;22.80;97.00;;;;;;4990200;28;20432;-34
2021/07/11 10:49:31;;;;;;;14.45;13.05;;;22.70;97.10;;;;;;4989229;28;20089;-34
2021/07/11 10:52:04;;;;;;;15.52;13.98;;;22.80;97.10;;;;;;4976275;28;20023;-31
2021/07/11 10:54:32;;;;;;;14.27;12.52;;;22.90;96.90;;;;;;4990122;28;20447;-32
2021/07/11 10:57:00;;;;;;;13.70;12.30;;;22.90;96.60;;;;;;4990098;28;20026;-31
2021/07/11 10:59:37;;;;;;;16.45;14.75;;;23.00;96.60;;;;;;4989519;28;20057;-31
2021/07/11 11:02:16;;;;;;;14.98;13.38;;;23.20;96.80;;;;;;4986242;28;20054;-31
2021/07/11 11:04:43;;;;;;;16.65;14.82;;;23.40;96.40;;;;;;4989857;28;20057;-34
2021/07/11 11:07:17;;;;;;;14.25;11.27;;;23.60;96.10;;;;;;4986041;28;20019;-31
2021/07/11 11:09:47;;;;;;;15.38;12.10;;;23.90;96.10;;;;;;4989733;28;20018;-31
2021/07/11 11:12:27;;;;;;;12.95;11.50;;;24.10;95.90;;;;;;4987861;28;20149;-31
2021/07/11 11:14:57;;;;;;;13.43;11.55;;;24.20;95.80;;;;;;4989668;28;20025;-31
2021/07/11 11:17:34;;;;;;;13.70;12.23;;;24.40;95.70;;;;;;4988684;28;20027;-31
2021/07/11 11:20:04;;;;;;;13.07;11.75;;;24.60;95.60;;;;;;4988637;28;20030;-38
2021/07/11 11:22:29;;;;;;;11.07;9.88;;;24.70;95.50;;;;;;4989150;28;20018;-32
2021/07/11 11:24:55;;;;;;;11.45;10.25;;;24.80;95.30;;;;;;4989564;28;20030;-31
2021/07/11 11:27:33;;;;;;;10.07;9.07;;;24.90;95.10;;;;;;4988553;28;20424;-31
2021/07/11 11:30:18;;;;;;;9.10;7.88;;;25.00;95.00;;;;;;4988911;28;20031;-32
2021/07/11 11:33:00;;;;;;;9.30;8.40;;;25.10;95.00;;;;;;4989325;28;20026;-33
2021/07/11 11:35:34;;;;;;;9.48;8.50;;;25.30;94.70;;;;;;4989834;28;20037;-33
2021/07/11 11:38:05;;;;;;;10.90;9.80;;;25.40;94.50;;;;;;4988956;28;20048;-33
2021/07/11 11:40:33;;;;;;;10.27;9.27;;;25.50;94.30;;;;;;4988208;28;20100;-33
2021/07/11 11:43:02;;;;;;;9.00;8.10;;;25.60;94.10;;;;;;4989272;28;20042;-31
2021/07/11 11:45:30;;;;;;;10.32;9.32;;;25.70;94.00;;;;;;4989560;28;20517;-31
2021/07/11 11:48:01;;;;;;;8.38;7.57;;;25.70;93.60;;;;;;4987811;28;20050;-31
2021/07/11 11:50:28;;;;;;;8.68;7.78;;;25.70;93.50;;;;;;4989784;28;20050;-34
2021/07/11 11:53:05;;;;;;;10.35;9.35;;;25.70;93.40;;;;;;4988665;28;20030;-32
2021/07/11 11:55:31;;;;;;;9.73;8.73;;;25.70;93.00;;;;;;4970112;28;20026;-31
2021/07/11 11:58:05;;;;;;;9.68;8.77;;;25.50;92.90;;;;;;4983172;28;20030;-31
2021/07/11 12:00:31;;;;;;;10.23;9.18;;;25.30;92.90;;;;;;4991058;28;20422;-31
2021/07/11 12:03:07;;;;;;;7.93;7.22;;;25.20;92.90;;;;;;4992185;28;20125;-31
2021/07/11 12:05:35;;;;;;;7.55;6.85;;;25.10;93.00;;;;;;4993241;28;20560;-31
2021/07/11 12:08:01;;;;;;;6.88;6.28;;;25.00;93.10;;;;;;4992068;28;20497;-31
2021/07/11 12:10:29;;;;;;;6.75;6.15;;;25.00;93.10;;;;;;4992933;28;20393;-34
2021/07/11 12:13:00;;;;;;;6.60;6.00;;;24.90;93.10;;;;;;4992434;28;20129;-34
2021/07/11 12:15:35;;;;;;;8.10;6.33;;;24.90;93.20;;;;;;4993178;28;20389;-33
2021/07/11 12:18:03;;;;;;;7.55;6.25;;;25.00;93.20;;;;;;4992113;28;20026;-33
2021/07/11 12:20:29;;;;;;;6.72;6.05;;;25.10;93.00;;;;;;4993002;28;20053;-33
2021/07/11 12:22:55;;;;;;;7.03;6.38;;;25.30;92.90;;;;;;4992186;28;20026;-34
2021/07/11 12:25:29;;;;;;;6.68;5.93;;;25.40;92.70;;;;;;4992824;28;20025;-33
2021/07/11 12:28:01;;;;;;;6.57;5.97;;;25.60;92.60;;;;;;4991890;28;20026;-34
2021/07/11 12:30:38;;;;;;;6.03;5.40;;;25.80;92.40;;;;;;4982283;28;20053;-33
2021/07/11 12:33:07;;;;;;;6.28;5.68;;;25.90;92.10;;;;;;4992184;28;20025;-33
2021/07/11 12:35:45;;;;;;;6.95;6.25;;;26.00;91.80;;;;;;4981835;28;20497;-33
2021/07/11 12:38:11;;;;;;;6.68;5.93;;;26.10;91.30;;;;;;4991714;28;20026;-34